Time;durP1;ratioP1;P1;durP2;ratioP2;P2;SDS_P1;SDS_P2;PMS_P1;PMS_P2;Temp;Humidity;BMP_temperature;BMP_pressure;BME280_temperature;BME280_humidity;BME280_pressure;Samples;Min_cycle;Max_cycle;Signal;HPM_P1;HPM_P2
2022/10/16 00:00:26;;;;;;;10.47;4.73;;;;;;;11.76;100.00;100841.09;5005576;29;20074;-80
2022/10/16 00:02:57;;;;;;;10.97;4.87;;;;;;;11.73;100.00;100844.59;5006783;29;20042;-77
2022/10/16 00:05:29;;;;;;;9.40;3.40;;;;;;;11.68;100.00;100849.06;5006695;29;20042;-76
2022/10/16 00:08:02;;;;;;;10.13;4.22;;;;;;;11.66;100.00;100849.06;5006931;29;20046;-76
2022/10/16 00:10:34;;;;;;;8.52;3.95;;;;;;;11.66;100.00;100838.63;5006710;29;20402;-76
2022/10/16 00:13:06;;;;;;;5.68;3.33;;;;;;;11.61;100.00;100823.94;5006316;29;20043;-77
2022/10/16 00:15:38;;;;;;;7.50;3.70;;;;;;;11.64;100.00;100839.53;5005634;29;20034;-78
2022/10/16 00:18:10;;;;;;;7.50;4.22;;;;;;;11.61;100.00;100850.91;5005959;29;20051;-76
2022/10/16 00:20:41;;;;;;;5.43;3.47;;;;;;;11.57;100.00;100843.13;5006314;29;20375;-77
2022/10/16 00:23:12;;;;;;;9.77;3.43;;;;;;;11.55;100.00;100844.91;5006762;29;20031;-77
2022/10/16 00:25:44;;;;;;;7.03;3.40;;;;;;;11.48;100.00;100847.63;5006915;29;20057;-79
2022/10/16 00:28:15;;;;;;;7.43;3.63;;;;;;;11.47;100.00;100847.66;5006684;29;20125;-76
2022/10/16 00:30:47;;;;;;;6.93;3.50;;;;;;;11.39;100.00;100842.53;5006172;29;20072;-77
2022/10/16 00:33:18;;;;;;;8.97;4.13;;;;;;;11.40;100.00;100836.44;5005152;29;20114;-75
2022/10/16 00:35:50;;;;;;;6.67;3.67;;;;;;;11.38;100.00;100842.56;5005969;29;20483;-76
2022/10/16 00:38:21;;;;;;;8.70;3.80;;;;;;;11.34;100.00;100836.53;5006064;29;20062;-78
2022/10/16 00:40:53;;;;;;;10.90;3.33;;;;;;;11.35;100.00;100845.22;5006134;29;20035;-76
2022/10/16 00:43:45;;;;;;;8.73;3.23;;;;;;;11.32;100.00;100853.97;5004819;29;20039;-75
2022/10/16 00:46:25;;;;;;;8.30;3.33;;;;;;;11.32;100.00;100856.56;5005604;29;20034;-76
2022/10/16 00:49:09;;;;;;;12.57;3.53;;;;;;;11.30;100.00;100848.78;5006040;29;20479;-76
2022/10/16 00:51:44;;;;;;;6.90;3.55;;;;;;;11.28;100.00;100847.06;5005565;29;20023;-75
2022/10/16 00:54:21;;;;;;;9.60;4.15;;;;;;;11.23;100.00;100859.31;5006386;29;20043;-76
2022/10/16 00:56:54;;;;;;;8.05;3.50;;;;;;;11.27;100.00;100855.75;5004901;29;20069;-76
2022/10/16 00:59:31;;;;;;;5.40;3.00;;;;;;;11.23;100.00;100854.09;5005774;29;20043;-77
2022/10/16 01:02:05;;;;;;;5.00;3.20;;;;;;;11.18;100.00;100851.53;5005820;29;20417;-76
2022/10/16 01:04:43;;;;;;;5.80;3.30;;;;;;;11.16;100.00;100845.50;5005251;29;20128;-75
2022/10/16 01:07:34;;;;;;;12.65;3.50;;;;;;;11.11;100.00;100836.88;5005430;29;20541;-76
2022/10/16 01:10:36;;;;;;;6.25;3.40;;;;;;;11.08;100.00;100843.00;5006292;29;20045;-76
2022/10/16 01:13:17;;;;;;;9.75;3.22;;;;;;;11.09;100.00;100836.00;5005823;29;20038;-77
2022/10/16 01:15:58;;;;;;;5.60;2.90;;;;;;;11.06;100.00;100836.94;5005757;29;20038;-78
2022/10/16 01:18:37;;;;;;;7.20;3.63;;;;;;;11.04;100.00;100840.44;5005340;29;20439;-76
2022/10/16 01:21:24;;;;;;;6.22;3.40;;;;;;;11.05;100.00;100845.63;5005577;29;20167;-77
2022/10/16 01:23:58;;;;;;;6.32;3.83;;;;;;;11.06;100.00;100841.28;5005297;29;20038;-77
2022/10/16 01:26:56;;;;;;;6.53;3.53;;;;;;;11.05;100.00;100850.00;5004716;29;20491;-77
2022/10/16 01:29:54;;;;;;;7.18;3.20;;;;;;;10.96;100.00;100845.75;5005525;29;20027;-76
2022/10/16 01:32:43;;;;;;;7.90;3.60;;;;;;;11.03;100.00;100847.41;5005236;29;20054;-76
2022/10/16 01:35:23;;;;;;;7.78;3.80;;;;;;;11.00;100.00;100844.00;5005552;29;20042;-76
2022/10/16 01:37:59;;;;;;;6.30;3.13;;;;;;;11.07;100.00;100850.84;5004924;29;20037;-76
2022/10/16 01:40:33;;;;;;;5.85;3.15;;;;;;;11.14;100.00;100852.50;5005234;29;20117;-76
2022/10/16 01:43:19;;;;;;;6.57;3.28;;;;;;;11.22;100.00;100853.25;5005175;29;20045;-75
2022/10/16 01:45:52;;;;;;;8.07;3.78;;;;;;;11.25;100.00;100858.41;5004183;29;20121;-76
2022/10/16 01:48:24;;;;;;;7.40;3.55;;;;;;;11.28;100.00;100839.22;5005332;29;20117;-75
2022/10/16 01:51:03;;;;;;;7.13;3.20;;;;;;;11.26;100.00;100844.47;5005131;29;20122;-77
2022/10/16 01:53:35;;;;;;;7.72;3.45;;;;;;;11.24;100.00;100841.03;5005141;29;20031;-76
2022/10/16 01:56:10;;;;;;;4.65;3.17;;;;;;;11.27;100.00;100842.72;5005142;29;20066;-76
2022/10/16 01:58:49;;;;;;;4.97;2.72;;;;;;;11.24;100.00;100846.25;5005074;29;20034;-77
2022/10/16 02:01:24;;;;;;;8.35;3.20;;;;;;;11.27;100.00;100851.41;5005040;29;20046;-76
2022/10/16 02:03:58;;;;;;;7.00;3.05;;;;;;;11.26;100.00;100841.84;5004974;29;20058;-80
2022/10/16 02:06:30;;;;;;;7.72;3.25;;;;;;;11.27;100.00;100853.16;5004892;29;20510;-76
2022/10/16 02:09:01;;;;;;;8.13;3.10;;;;;;;11.32;100.00;100848.75;5004541;29;20061;-76
2022/10/16 02:11:33;;;;;;;5.33;2.87;;;;;;;11.32;100.00;100856.56;5003814;29;20379;-75
2022/10/16 02:14:06;;;;;;;6.67;3.73;;;;;;;11.31;100.00;100854.84;5003674;29;20123;-75
2022/10/16 02:16:44;;;;;;;3.80;2.70;;;;;;;11.28;100.00;100855.72;5003722;29;20031;-76
2022/10/16 02:19:21;;;;;;;5.30;2.88;;;;;;;11.27;100.00;100858.38;5004838;29;20039;-74
2022/10/16 02:21:59;;;;;;;5.95;2.80;;;;;;;11.22;100.00;100854.97;5005118;29;20038;-74
2022/10/16 02:24:43;;;;;;;6.80;2.60;;;;;;;11.20;100.00;100849.75;5005314;29;20367;-74
2022/10/16 02:27:24;;;;;;;10.15;2.78;;;;;;;11.23;100.00;100849.72;5004810;29;20068;-75
2022/10/16 02:30:25;;;;;;;6.43;2.45;;;;;;;11.18;100.00;100851.53;5005516;29;20355;-76
2022/10/16 02:32:59;;;;;;;7.10;3.03;;;;;;;11.19;100.00;100853.28;5004825;29;20049;-77
2022/10/16 02:35:31;;;;;;;4.07;2.60;;;;;;;11.15;100.00;100851.59;5004769;29;20050;-76
2022/10/16 02:38:04;;;;;;;8.97;3.13;;;;;;;11.08;100.00;100850.81;5005185;29;20039;-76
2022/10/16 02:40:36;;;;;;;5.85;2.70;;;;;;;11.07;100.00;100856.06;5008770;29;20110;-76
2022/10/16 02:43:09;;;;;;;4.97;2.90;;;;;;;11.07;100.00;100866.47;5008051;29;20039;-76
2022/10/16 02:45:40;;;;;;;5.18;2.63;;;;;;;11.07;100.00;100861.28;5009632;29;20072;-76
2022/10/16 02:48:12;;;;;;;6.23;2.80;;;;;;;11.04;100.00;100853.47;5008716;29;20039;-77
2022/10/16 02:50:43;;;;;;;5.53;2.60;;;;;;;11.02;100.00;100850.03;5008267;29;20071;-76
2022/10/16 02:53:14;;;;;;;4.73;2.70;;;;;;;10.95;100.00;100847.50;5008102;29;20091;-76
2022/10/16 02:55:46;;;;;;;8.20;2.67;;;;;;;10.92;100.00;100844.09;5007981;29;20109;-76
2022/10/16 02:58:17;;;;;;;5.60;2.60;;;;;;;10.87;100.00;100838.06;5008169;29;20031;-77
2022/10/16 03:00:48;;;;;;;5.70;2.47;;;;;;;10.86;100.00;100855.44;5007549;29;20081;-77
2022/10/16 03:03:20;;;;;;;3.43;2.17;;;;;;;10.88;100.00;100855.44;5008236;29;20448;-76
2022/10/16 03:05:51;;;;;;;6.77;2.60;;;;;;;10.85;100.00;100858.97;5006340;29;20041;-76
2022/10/16 03:08:24;;;;;;;5.63;2.43;;;;;;;10.88;100.00;100861.53;5007677;29;20462;-76
2022/10/16 03:10:56;;;;;;;3.55;2.38;;;;;;;10.85;100.00;100853.75;5007741;29;20472;-78
2022/10/16 03:13:27;;;;;;;4.80;2.63;;;;;;;10.86;100.00;100849.38;5007565;29;20035;-77
2022/10/16 03:15:59;;;;;;;8.83;3.77;;;;;;;10.87;100.00;100846.75;5007584;29;20459;-76
2022/10/16 03:18:30;;;;;;;5.60;2.40;;;;;;;10.87;100.00;100851.97;5007643;29;20129;-75
2022/10/16 03:21:01;;;;;;;6.27;2.63;;;;;;;10.91;100.00;100869.28;5006809;29;20035;-75
2022/10/16 03:23:33;;;;;;;6.20;2.30;;;;;;;10.94;100.00;100864.03;5007373;29;20091;-75
2022/10/16 03:26:04;;;;;;;6.27;2.60;;;;;;;10.97;100.00;100872.72;5007140;29;20039;-75
2022/10/16 03:28:36;;;;;;;4.33;2.10;;;;;;;10.93;100.00;100872.75;5007239;29;20034;-76
2022/10/16 03:31:08;;;;;;;5.97;2.23;;;;;;;10.98;100.00;100879.63;5007202;29;20035;-78
2022/10/16 03:33:39;;;;;;;9.65;2.65;;;;;;;10.94;100.00;100884.03;5007382;29;20035;-76
2022/10/16 03:36:10;;;;;;;5.57;2.13;;;;;;;10.94;100.00;100887.50;5007233;29;20043;-75
2022/10/16 03:38:42;;;;;;;4.63;2.30;;;;;;;10.93;100.00;100879.69;5007291;29;20062;-76
2022/10/16 03:41:13;;;;;;;5.00;2.20;;;;;;;10.92;100.00;100883.22;5007109;29;20038;-76
2022/10/16 03:43:44;;;;;;;4.77;2.20;;;;;;;10.93;100.00;100888.41;5007030;29;20043;-76
2022/10/16 03:46:16;;;;;;;5.60;2.30;;;;;;;10.96;100.00;100895.31;5007374;29;20043;-75
2022/10/16 03:48:48;;;;;;;5.13;2.23;;;;;;;10.94;100.00;100900.53;5008037;29;20038;-76
2022/10/16 03:51:19;;;;;;;5.57;2.17;;;;;;;10.95;100.00;100902.28;5006854;29;20080;-76
2022/10/16 03:53:51;;;;;;;7.60;2.00;;;;;;;10.97;100.00;100893.59;5005707;29;20373;-76
2022/10/16 03:56:22;;;;;;;5.20;2.30;;;;;;;10.99;100.00;100899.63;5007079;29;20047;-75
2022/10/16 03:58:53;;;;;;;6.07;2.23;;;;;;;10.97;100.00;100901.41;5006595;29;20511;-76
2022/10/16 04:01:25;;;;;;;7.17;2.80;;;;;;;10.99;100.00;100907.47;5006848;29;20081;-75
2022/10/16 04:03:56;;;;;;;7.37;2.87;;;;;;;11.03;100.00;100906.53;5006999;29;20463;-76
2022/10/16 04:06:27;;;;;;;6.73;2.77;;;;;;;11.06;100.00;100898.66;5006611;29;20031;-74
2022/10/16 04:08:59;;;;;;;9.43;3.53;;;;;;;11.04;100.00;100900.44;5006636;29;20398;-74
2022/10/16 04:11:30;;;;;;;8.03;2.83;;;;;;;11.01;100.00;100898.75;5006551;29;20061;-75
2022/10/16 04:14:01;;;;;;;6.57;2.80;;;;;;;11.04;100.00;100903.03;5006800;29;20499;-75
2022/10/16 04:16:33;;;;;;;6.57;3.50;;;;;;;11.05;100.00;100910.00;5006720;29;20034;-75
2022/10/16 04:19:04;;;;;;;5.60;3.20;;;;;;;11.06;100.00;100903.88;5006217;29;20035;-75
2022/10/16 04:21:36;;;;;;;6.00;3.50;;;;;;;11.06;100.00;100902.16;5006402;29;20127;-75
2022/10/16 04:24:07;;;;;;;7.73;3.20;;;;;;;11.07;100.00;100905.63;5006116;29;20419;-78
2022/10/16 04:26:38;;;;;;;6.13;2.67;;;;;;;11.13;100.00;100908.16;5006310;29;20035;-76
2022/10/16 04:29:10;;;;;;;8.00;2.80;;;;;;;11.12;100.00;100906.41;5006228;29;20495;-74
2022/10/16 04:31:41;;;;;;;8.63;4.13;;;;;;;11.12;100.00;100909.91;5006667;29;20027;-75
2022/10/16 04:34:12;;;;;;;6.80;3.47;;;;;;;11.18;100.00;100905.47;5006138;29;20042;-74
2022/10/16 04:36:48;;;;;;;6.90;3.10;;;;;;;11.17;100.00;100909.81;5005826;29;20050;-75
2022/10/16 04:39:19;;;;;;;6.28;3.30;;;;;;;11.15;100.00;100924.63;5005507;29;20129;-75
2022/10/16 04:41:50;;;;;;;5.57;3.50;;;;;;;11.13;100.00;100921.19;5005835;29;20059;-74
2022/10/16 04:44:22;;;;;;;8.33;3.50;;;;;;;11.11;100.00;100922.97;5005517;29;20039;-74
2022/10/16 04:46:53;;;;;;;6.40;2.70;;;;;;;11.11;100.00;100933.41;5006021;29;20034;-75
2022/10/16 04:49:24;;;;;;;7.27;2.77;;;;;;;11.06;100.00;100928.25;5005750;29;20043;-75
2022/10/16 04:51:56;;;;;;;5.53;3.43;;;;;;;11.04;100.00;100927.38;5005645;29;20042;-75
2022/10/16 04:54:27;;;;;;;6.30;3.43;;;;;;;11.05;100.00;100939.53;5004498;29;20119;-75
2022/10/16 04:56:58;;;;;;;12.03;4.13;;;;;;;11.04;100.00;100936.97;5005582;29;20038;-75
2022/10/16 04:59:30;;;;;;;10.47;3.23;;;;;;;11.00;100.00;100940.50;5005482;29;20039;-77
2022/10/16 05:02:01;;;;;;;5.17;3.20;;;;;;;11.03;100.00;100943.94;5005231;29;20456;-78
2022/10/16 05:04:33;;;;;;;8.80;2.90;;;;;;;10.98;100.00;100944.84;5005650;29;20043;-75
2022/10/16 05:07:04;;;;;;;11.13;4.07;;;;;;;10.99;100.00;100959.63;5005557;29;20065;-75
2022/10/16 05:09:35;;;;;;;5.57;3.40;;;;;;;10.96;100.00;100955.31;5005672;29;20070;-75
2022/10/16 05:12:07;;;;;;;4.20;2.83;;;;;;;10.98;100.00;100965.72;5005545;29;20079;-75
2022/10/16 05:14:38;;;;;;;6.67;3.00;;;;;;;11.00;100.00;100964.84;5005812;29;20047;-76
2022/10/16 05:17:09;;;;;;;8.13;2.80;;;;;;;10.95;100.00;100964.88;5005482;29;20065;-75
2022/10/16 05:19:41;;;;;;;5.60;2.77;;;;;;;10.93;100.00;100961.44;5005609;29;20046;-75
2022/10/16 05:22:12;;;;;;;7.50;3.37;;;;;;;10.91;100.00;100965.78;5005386;29;20035;-75
2022/10/16 05:24:43;;;;;;;8.50;3.20;;;;;;;10.93;100.00;100965.75;5005627;29;20035;-74
2022/10/16 05:27:18;;;;;;;10.43;3.37;;;;;;;10.92;100.00;100972.75;5005314;29;20118;-75
2022/10/16 05:29:50;;;;;;;7.85;3.08;;;;;;;10.83;100.00;100967.63;5005147;29;20042;-74
2022/10/16 05:32:21;;;;;;;7.93;3.07;;;;;;;10.81;100.00;100974.59;5005633;29;20059;-75
2022/10/16 05:34:52;;;;;;;7.00;3.23;;;;;;;10.77;100.00;100970.31;5005302;29;20080;-75
2022/10/16 05:37:24;;;;;;;9.80;3.83;;;;;;;10.79;100.00;100973.75;5005519;29;20043;-78
2022/10/16 05:39:55;;;;;;;12.47;3.33;;;;;;;10.68;100.00;100973.00;5005596;29;20093;-75
2022/10/16 05:42:26;;;;;;;8.00;3.23;;;;;;;10.78;100.00;100990.28;5005657;29;20031;-75
2022/10/16 05:44:58;;;;;;;12.97;3.23;;;;;;;10.76;100.00;100990.28;5005258;29;20039;-74
2022/10/16 05:47:29;;;;;;;8.30;3.80;;;;;;;10.73;100.00;101005.97;5005183;29;20129;-74
2022/10/16 05:50:01;;;;;;;6.90;3.03;;;;;;;10.69;100.00;101004.28;5003632;29;20066;-75
2022/10/16 05:52:32;;;;;;;7.63;3.30;;;;;;;10.62;100.00;101013.03;5004892;29;20433;-77
2022/10/16 05:55:04;;;;;;;8.60;3.77;;;;;;;10.71;100.00;101009.47;5005086;29;20034;-78
2022/10/16 05:57:35;;;;;;;8.53;3.53;;;;;;;10.73;100.00;101018.16;5004985;29;20043;-75
2022/10/16 06:00:07;;;;;;;8.67;3.60;;;;;;;10.75;100.00;101027.69;5005141;29;20050;-73
2022/10/16 06:02:38;;;;;;;9.13;3.42;;;;;;;10.72;100.00;101024.22;5005046;29;20031;-78
2022/10/16 06:05:10;;;;;;;10.03;3.43;;;;;;;10.74;100.00;101025.09;5005161;29;20059;-75
2022/10/16 06:07:41;;;;;;;5.43;3.13;;;;;;;10.72;100.00;101039.88;5004258;29;20031;-75
2022/10/16 06:10:12;;;;;;;6.17;3.70;;;;;;;10.71;100.00;101041.63;5004778;29;20038;-75
2022/10/16 06:12:44;;;;;;;8.90;3.23;;;;;;;10.76;100.00;101044.19;5004484;29;20046;-75
2022/10/16 06:15:15;;;;;;;7.70;4.17;;;;;;;10.74;100.00;101045.97;5008013;29;20031;-75
2022/10/16 06:17:46;;;;;;;8.10;3.30;;;;;;;10.80;100.00;101060.66;5008456;29;20046;-78
2022/10/16 06:20:18;;;;;;;7.67;3.43;;;;;;;10.77;100.00;101061.56;5008313;29;20083;-77
2022/10/16 06:22:49;;;;;;;10.27;3.77;;;;;;;10.78;100.00;101071.09;5007966;29;20115;-75
2022/10/16 06:25:20;;;;;;;10.50;3.60;;;;;;;10.77;100.00;101077.22;5008242;29;20506;-74
2022/10/16 06:27:52;;;;;;;9.50;3.30;;;;;;;10.79;100.00;101083.28;5008623;29;20471;-76
2022/10/16 06:30:23;;;;;;;5.33;3.07;;;;;;;10.76;100.00;101075.47;5008363;29;20049;-75
2022/10/16 06:32:55;;;;;;;7.27;3.10;;;;;;;10.76;100.00;101083.31;5008040;29;20035;-76
2022/10/16 06:35:26;;;;;;;5.30;2.87;;;;;;;10.74;100.00;101083.31;5008392;29;20514;-76
2022/10/16 06:37:58;;;;;;;9.47;3.63;;;;;;;10.82;100.00;101091.09;5007749;29;20042;-75
2022/10/16 06:40:29;;;;;;;5.30;2.87;;;;;;;10.80;100.00;101086.75;5008037;29;20043;-76
2022/10/16 06:43:00;;;;;;;7.53;3.33;;;;;;;10.86;100.00;101092.75;5008287;29;20035;-76
2022/10/16 06:45:32;;;;;;;7.80;3.50;;;;;;;10.86;100.00;101091.91;5007904;29;20510;-75
2022/10/16 06:48:03;;;;;;;7.90;3.40;;;;;;;10.87;100.00;101110.16;5007894;29;20035;-73
2022/10/16 06:50:34;;;;;;;11.10;3.57;;;;;;;10.89;100.00;101102.31;5008029;29;20550;-74
2022/10/16 06:53:06;;;;;;;7.20;3.23;;;;;;;10.95;100.00;101118.78;5008273;29;20073;-78
2022/10/16 06:55:37;;;;;;;8.87;3.13;;;;;;;11.01;100.00;101123.09;5007092;29;20054;-77
2022/10/16 06:58:08;;;;;;;8.37;3.57;;;;;;;11.04;100.00;101123.03;5007769;29;20047;-76
2022/10/16 07:00:40;;;;;;;8.20;3.27;;;;;;;11.13;100.00;101136.00;5006132;29;20039;-75
2022/10/16 07:03:11;;;;;;;7.43;3.03;;;;;;;11.17;100.00;101128.13;5007648;29;20071;-75
2022/10/16 07:05:43;;;;;;;5.83;3.37;;;;;;;11.24;100.00;101132.44;5007248;29;20058;-76
2022/10/16 07:08:14;;;;;;;6.73;3.80;;;;;;;11.34;100.00;101130.59;5007509;29;20372;-77
2022/10/16 07:10:46;;;;;;;7.27;3.07;;;;;;;11.41;100.00;101137.47;5007024;29;20066;-78
2022/10/16 07:13:17;;;;;;;8.20;3.60;;;;;;;11.46;100.00;101139.16;5007126;29;20376;-73
2022/10/16 07:15:48;;;;;;;8.87;3.43;;;;;;;11.52;100.00;101140.81;5006001;29;20096;-73
2022/10/16 07:18:20;;;;;;;7.53;3.27;;;;;;;11.64;100.00;101145.91;5007226;29;20070;-74
2022/10/16 07:20:52;;;;;;;4.30;2.40;;;;;;;11.68;100.00;101152.81;5006708;29;20043;-75
2022/10/16 07:23:23;;;;;;;4.70;2.55;;;;;;;11.71;100.00;101161.53;5007882;29;20073;-74
2022/10/16 07:25:55;;;;;;;5.53;2.93;;;;;;;11.80;100.00;101158.78;5006540;29;20084;-74
2022/10/16 07:28:26;;;;;;;5.13;2.63;;;;;;;11.91;100.00;101169.97;5005496;29;20039;-75
2022/10/16 07:31:05;;;;;;;5.70;3.10;;;;;;;12.02;100.00;101168.13;5006945;29;20416;-76
2022/10/16 07:33:38;;;;;;;5.82;2.70;;;;;;;12.17;100.00;101172.31;5007030;29;20041;-74
2022/10/16 07:36:13;;;;;;;5.20;2.60;;;;;;;12.27;100.00;101182.59;5006787;29;20038;-72
2022/10/16 07:38:45;;;;;;;5.60;2.40;;;;;;;12.38;100.00;101192.06;5006698;29;20600;-73
2022/10/16 07:41:18;;;;;;;7.25;2.78;;;;;;;12.54;100.00;101191.81;5006600;29;20536;-74
2022/10/16 07:43:52;;;;;;;7.45;2.60;;;;;;;12.66;100.00;101193.41;5006863;29;20038;-75
2022/10/16 07:46:24;;;;;;;11.07;3.35;;;;;;;12.83;100.00;101208.84;5006794;29;20042;-74
2022/10/16 07:48:55;;;;;;;6.40;2.50;;;;;;;12.87;100.00;101211.38;5007083;29;20039;-74
2022/10/16 07:51:27;;;;;;;9.77;3.70;;;;;;;12.92;100.00;101212.16;5006585;29;20451;-73
2022/10/16 07:53:58;;;;;;;6.60;2.73;;;;;;;12.99;100.00;101215.56;5006571;29;20070;-73
2022/10/16 07:56:32;;;;;;;7.27;2.70;;;;;;;13.05;100.00;101217.22;5006699;29;20057;-79
2022/10/16 07:59:03;;;;;;;7.65;2.63;;;;;;;13.15;100.00;101234.50;5006460;29;20031;-73
2022/10/16 08:01:35;;;;;;;5.63;2.73;;;;;;;13.17;100.00;101229.22;5007040;29;20041;-77
2022/10/16 08:04:06;;;;;;;6.23;2.33;;;;;;;13.11;100.00;101233.69;5006503;29;20039;-72
2022/10/16 08:06:39;;;;;;;6.63;2.30;;;;;;;13.19;100.00;101233.56;5006003;29;20043;-79
2022/10/16 08:09:10;;;;;;;5.68;2.13;;;;;;;13.30;100.00;101236.00;5005885;29;20563;-74
2022/10/16 08:11:42;;;;;;;2.83;2.10;;;;;;;13.38;100.00;101244.63;5006081;29;20117;-71
2022/10/16 08:14:13;;;;;;;4.27;1.80;;;;;;;13.45;100.00;101243.63;5006241;29;20460;-73
2022/10/16 08:16:44;;;;;;;9.23;2.97;;;;;;;13.50;100.00;101256.63;5006230;29;20038;-73
2022/10/16 08:19:16;;;;;;;8.73;2.60;;;;;;;13.61;100.00;101253.84;5006450;29;20079;-75
2022/10/16 08:21:48;;;;;;;3.07;2.27;;;;;;;13.64;98.60;101261.66;5004534;29;20034;-77
2022/10/16 08:24:19;;;;;;;15.13;4.40;;;;;;;13.71;98.68;101265.03;5005993;29;20501;-72
2022/10/16 08:26:53;;;;;;;7.57;2.70;;;;;;;13.77;97.03;101263.16;5005885;29;20034;-76
2022/10/16 08:29:24;;;;;;;6.85;2.20;;;;;;;13.88;96.90;101275.16;5005814;29;20058;-73
2022/10/16 08:31:56;;;;;;;5.90;2.33;;;;;;;13.96;96.28;101268.91;5006475;29;20095;-73
2022/10/16 08:34:27;;;;;;;7.90;2.33;;;;;;;14.06;95.96;101280.06;5004913;29;20055;-76
2022/10/16 08:36:59;;;;;;;7.30;3.33;;;;;;;14.11;95.27;101278.22;5004882;29;20034;-73
2022/10/16 08:39:30;;;;;;;6.43;2.10;;;;;;;14.21;94.69;101292.00;5005464;29;20163;-73
2022/10/16 08:42:39;;;;;;;7.97;2.10;;;;;;;14.48;94.77;101295.00;5005669;29;20555;-72
2022/10/16 08:45:10;;;;;;;6.65;2.38;;;;;;;14.51;92.54;101298.41;4998199;29;20558;-73
2022/10/16 08:48:05;;;;;;;5.30;2.37;;;;;;;14.64;91.33;101303.44;5005655;29;20101;-73
2022/10/16 08:50:39;;;;;;;7.63;2.78;;;;;;;14.72;90.27;101304.97;5005577;29;20038;-74
2022/10/16 08:53:30;;;;;;;4.47;1.90;;;;;;;14.84;90.49;101301.22;5005539;29;20035;-74
2022/10/16 08:56:01;;;;;;;6.15;1.98;;;;;;;14.93;88.68;101298.38;5005301;29;20039;-75
2022/10/16 08:58:32;;;;;;;5.77;2.20;;;;;;;15.08;88.40;101304.19;5005264;29;20103;-74
2022/10/16 09:01:18;;;;;;;6.53;2.30;;;;;;;15.31;86.26;101295.75;5005492;29;20034;-72
2022/10/16 09:04:14;;;;;;;7.32;1.95;;;;;;;15.58;85.77;101314.38;5005672;29;20203;-73
2022/10/16 09:07:02;;;;;;;7.38;2.88;;;;;;;15.70;85.07;101306.19;5005221;29;20437;-82
2022/10/16 09:10:21;;;;;;;7.03;2.72;;;;;;;15.79;82.10;101321.75;5005323;29;20103;-75
2022/10/16 09:13:10;;;;;;;8.30;2.58;;;;;;;16.02;81.01;101320.28;5004649;29;20043;-72
2022/10/16 09:15:56;;;;;;;5.35;2.15;;;;;;;16.26;80.59;101333.66;5005318;29;20030;-73
2022/10/16 09:18:40;;;;;;;7.88;2.40;;;;;;;16.53;79.59;101332.00;5005228;29;20468;-74
2022/10/16 09:21:20;;;;;;;7.55;2.72;;;;;;;16.73;78.04;101334.94;5005788;29;20041;-74
2022/10/16 09:23:56;;;;;;;7.57;2.88;;;;;;;16.66;75.82;101338.63;5005286;29;20030;-74
2022/10/16 09:26:28;;;;;;;7.80;2.35;;;;;;;17.04;75.28;101336.66;5005116;29;20039;-74
2022/10/16 09:28:59;;;;;;;6.63;2.00;;;;;;;17.00;75.24;101337.69;5004806;29;20046;-74
2022/10/16 09:31:31;;;;;;;7.13;3.37;;;;;;;17.17;74.86;101336.28;5004694;29;20045;-76
2022/10/16 09:34:06;;;;;;;8.93;2.87;;;;;;;17.47;73.75;101345.84;5004855;29;20147;-74
2022/10/16 09:36:44;;;;;;;9.02;3.13;;;;;;;17.67;72.29;101344.31;5005105;29;20103;-74
2022/10/16 09:39:16;;;;;;;7.38;2.17;;;;;;;17.92;70.48;101341.75;5004420;29;20627;-75
2022/10/16 09:41:47;;;;;;;6.43;2.53;;;;;;;18.63;70.69;101347.13;5004904;29;20172;-73
2022/10/16 09:44:24;;;;;;;4.67;2.03;;;;;;;18.89;66.23;101348.78;5004964;29;20039;-72
2022/10/16 09:47:14;;;;;;;7.93;2.88;;;;;;;19.05;67.53;101338.47;5004891;29;20135;-73
2022/10/16 09:50:01;;;;;;;6.70;2.22;;;;;;;18.87;66.69;101345.34;5008825;29;20106;-73
2022/10/16 09:52:33;;;;;;;8.02;2.60;;;;;;;18.97;65.00;101345.84;5008559;29;20051;-74
2022/10/16 09:55:16;;;;;;;7.13;2.23;;;;;;;18.48;67.07;101350.31;5008698;29;20391;-74
2022/10/16 09:57:51;;;;;;;8.02;2.50;;;;;;;18.93;66.95;101349.53;5008603;29;20034;-73
2022/10/16 10:00:24;;;;;;;10.60;2.40;;;;;;;19.49;65.35;101348.19;5008907;29;20046;-74
2022/10/16 10:02:56;;;;;;;9.30;2.92;;;;;;;20.45;59.30;101355.56;5008655;29;20038;-73
2022/10/16 10:05:29;;;;;;;9.33;2.63;;;;;;;20.20;59.72;101364.56;5008371;29;20042;-75
2022/10/16 10:08:05;;;;;;;7.25;2.60;;;;;;;19.58;61.12;101357.53;5008454;29;20338;-73
2022/10/16 10:10:42;;;;;;;6.80;2.90;;;;;;;19.68;62.69;101356.22;5009128;29;20082;-74
2022/10/16 10:13:22;;;;;;;7.25;2.85;;;;;;;19.50;61.28;101358.69;5008334;29;20035;-73
2022/10/16 10:15:53;;;;;;;11.60;2.70;;;;;;;20.02;61.85;101355.66;5008483;29;20043;-73
2022/10/16 10:18:26;;;;;;;9.25;2.63;;;;;;;19.92;58.37;101357.00;5008298;29;20053;-73
2022/10/16 10:20:58;;;;;;;;;;;;;;;20.76;60.15;101368.28;5009148;29;20506;-73
2022/10/16 10:23:30;;;;;;;8.02;2.50;;;;;;;20.88;57.11;101363.34;5008376;29;20377;-73
2022/10/16 10:26:18;;;;;;;9.60;3.08;;;;;;;20.56;56.88;101366.53;5008343;29;20059;-73
2022/10/16 10:28:57;;;;;;;10.63;3.05;;;;;;;20.32;58.17;101376.44;5008073;29;20483;-73
2022/10/16 10:31:36;;;;;;;9.43;2.58;;;;;;;20.43;57.02;101380.38;5008540;29;20106;-80
2022/10/16 10:34:39;;;;;;;8.52;2.45;;;;;;;21.21;56.30;101381.25;5008254;29;20038;-73
2022/10/16 10:37:16;;;;;;;9.38;2.60;;;;;;;21.42;53.00;101382.00;5008050;29;20042;-73
2022/10/16 10:39:59;;;;;;;10.30;2.78;;;;;;;20.59;54.98;101384.03;5008532;29;20063;-73
2022/10/16 10:42:49;;;;;;;10.88;3.40;;;;;;;19.98;58.00;101388.50;5008056;29;20067;-72
2022/10/16 10:45:28;;;;;;;10.43;3.30;;;;;;;18.62;59.52;101386.78;5007661;29;20082;-72
2022/10/16 10:48:30;;;;;;;11.27;2.80;;;;;;;18.49;61.16;101392.50;5007901;29;20383;-73
2022/10/16 10:51:10;;;;;;;9.93;2.95;;;;;;;19.68;58.67;101380.03;5007858;29;20118;-72
2022/10/16 10:53:57;;;;;;;9.52;3.05;;;;;;;19.26;56.95;101391.41;5008097;29;20359;-72
2022/10/16 10:56:48;;;;;;;10.75;3.40;;;;;;;19.24;57.87;101391.47;5008102;29;20467;-73
2022/10/16 10:59:47;;;;;;;10.73;3.65;;;;;;;19.62;57.26;101391.69;5006565;29;20129;-74
2022/10/16 11:02:40;;;;;;;10.73;3.10;;;;;;;20.93;53.60;101393.16;5007809;29;20087;-73
2022/10/16 11:05:36;;;;;;;12.02;3.45;;;;;;;21.75;51.86;101392.78;5007796;29;20424;-72
2022/10/16 11:08:18;;;;;;;11.88;3.25;;;;;;;22.15;51.63;101392.50;5007323;29;20037;-72
2022/10/16 11:10:56;;;;;;;11.85;3.33;;;;;;;21.66;49.41;101393.22;5008010;29;20035;-72
2022/10/16 11:14:00;;;;;;;13.98;3.55;;;;;;;20.65;52.68;101391.75;5007270;29;20104;-72
2022/10/16 11:16:38;;;;;;;14.38;3.90;;;;;;;21.19;50.24;101399.88;5002232;29;20091;-76
2022/10/16 11:19:19;;;;;;;13.98;4.03;;;;;;;21.24;50.60;101386.41;5007424;29;20045;-77
2022/10/16 11:21:59;;;;;;;11.70;3.42;;;;;;;20.72;52.74;101401.16;5006671;29;20049;-73
2022/10/16 11:24:49;;;;;;;12.18;3.25;;;;;;;20.61;51.37;101403.41;5006887;29;20038;-73
2022/10/16 11:27:35;;;;;;;16.23;3.55;;;;;;;21.97;52.90;101396.97;5006773;29;20126;-73
2022/10/16 11:30:24;;;;;;;12.80;3.50;;;;;;;22.66;46.99;101395.19;5006923;29;20042;-73
2022/10/16 11:33:20;;;;;;;12.15;3.80;;;;;;;24.05;45.85;101387.38;5007046;29;20050;-73
2022/10/16 11:36:06;;;;;;;10.88;3.20;;;;;;;24.71;43.12;101397.56;5006713;29;20469;-74
2022/10/16 11:38:55;;;;;;;11.18;3.20;;;;;;;24.79;42.58;101396.19;5007003;29;20058;-73
2022/10/16 11:42:03;;;;;;;7.43;2.70;;;;;;;24.43;43.02;101401.03;5007018;29;20034;-73
2022/10/16 11:44:47;;;;;;;13.98;2.88;;;;;;;25.45;40.64;101402.66;5006801;29;20031;-73
2022/10/16 11:47:37;;;;;;;7.53;2.95;;;;;;;26.93;38.02;101405.91;5006935;29;20046;-72
2022/10/16 11:50:24;;;;;;;10.20;3.20;;;;;;;27.81;37.16;101399.44;5006925;29;20042;-73
2022/10/16 11:53:01;;;;;;;10.40;2.88;;;;;;;25.56;37.86;101405.47;5006955;29;20062;-72
2022/10/16 11:55:37;;;;;;;12.05;3.17;;;;;;;24.01;41.58;101408.03;5006839;29;20034;-73
2022/10/16 11:58:53;;;;;;;6.50;2.15;;;;;;;23.09;44.14;101408.81;5006859;29;20043;-73